createdAt,value
2023-03-26T00:01:16.112Z,99259.63
2023-03-26T00:03:47.176Z,99248.56
2023-03-26T00:06:16.797Z,99254.13
2023-03-26T00:08:45.816Z,99248.28
2023-03-26T00:11:14.799Z,99248.53
2023-03-26T00:13:43.956Z,99251.19
2023-03-26T00:16:15.719Z,99259.34
2023-03-26T00:18:43.697Z,99253.56
2023-03-26T00:21:15.565Z,99245.91
2023-03-26T00:23:43.112Z,99245.91
2023-03-26T00:26:11.267Z,99255.69
2023-03-26T00:28:42.502Z,99253.28
2023-03-26T00:31:12.521Z,99251.94
2023-03-26T00:33:40.816Z,99253.78
2023-03-26T00:36:11.878Z,99253.78
2023-03-26T00:38:39.502Z,99248.75
2023-03-26T00:41:17.615Z,99251.91
2023-03-26T00:43:47.053Z,99257.44
2023-03-26T00:46:13.658Z,99258.50
2023-03-26T00:48:45.852Z,99261.94
2023-03-26T00:51:15.536Z,99261.38
2023-03-26T00:53:46.493Z,99258.22
2023-03-26T00:56:13.154Z,99263.78
2023-03-26T00:58:39.729Z,99251.88
2023-03-26T01:01:09.472Z,99249.25
2023-03-26T01:03:38.460Z,99246.88
2023-03-26T01:06:08.189Z,99250.56
2023-03-26T01:08:39.992Z,99250.81
2023-03-26T01:11:14.046Z,99237.88
2023-03-26T01:13:48.690Z,99236.28
2023-03-26T01:16:27.588Z,99229.66
2023-03-26T01:18:58.870Z,99222.53
2023-03-26T01:21:31.789Z,99225.44
2023-03-26T01:24:06.711Z,99231.75
2023-03-26T01:26:46.692Z,99230.94
2023-03-26T01:29:22.527Z,99237.00
2023-03-26T01:32:01.240Z,99232.78
2023-03-26T01:34:53.028Z,99227.19
2023-03-26T01:37:41.575Z,99226.13
2023-03-26T01:40:25.535Z,99223.19
2023-03-26T01:43:06.860Z,99212.91
2023-03-26T01:45:38.254Z,99209.72
2023-03-26T01:48:05.506Z,99206.53
2023-03-26T01:50:32.017Z,99209.97
2023-03-26T01:52:58.649Z,99211.25
2023-03-26T01:55:35.397Z,99212.03
2023-03-26T01:58:18.960Z,99219.72
2023-03-26T02:01:12.709Z,99215.72
2023-03-26T02:03:47.097Z,99226.28
2023-03-26T02:06:18.415Z,99224.19
2023-03-26T02:08:56.878Z,99225.53
2023-03-26T02:11:23.651Z,99223.66
2023-03-26T02:13:51.918Z,99229.19
2023-03-26T02:16:20.175Z,99223.91
2023-03-26T02:18:51.379Z,99225.72
2023-03-26T02:21:20.362Z,99221.75
2023-03-26T02:23:57.717Z,99215.94
2023-03-26T02:26:25.260Z,99212.25
2023-03-26T02:28:51.781Z,99215.13
2023-03-26T02:31:19.446Z,99214.06
2023-03-26T02:33:47.762Z,99219.13
2023-03-26T02:36:14.518Z,99217.53
2023-03-26T02:38:41.791Z,99207.78
2023-03-26T02:41:08.331Z,99200.66
2023-03-26T02:43:34.881Z,99209.84
2023-03-26T02:46:01.391Z,99208.28
2023-03-26T02:48:28.017Z,99200.63
2023-03-26T02:50:54.757Z,99200.88
2023-03-26T02:53:21.850Z,99195.34
2023-03-26T02:55:48.429Z,99197.44
2023-03-26T02:58:18.007Z,99194.81
2023-03-26T03:00:47.196Z,99191.63
2023-03-26T03:03:14.532Z,99185.81
2023-03-26T03:05:43.357Z,99186.28
2023-03-26T03:08:10.404Z,99188.13
2023-03-26T03:10:37.883Z,99190.75
2023-03-26T03:13:07.682Z,99190.75
2023-03-26T03:15:35.097Z,99184.94
2023-03-26T03:18:02.229Z,99192.31
2023-03-26T03:20:30.473Z,99189.44
2023-03-26T03:22:56.979Z,99191.78
2023-03-26T03:25:23.550Z,99193.38
2023-03-26T03:27:52.818Z,99187.25
2023-03-26T03:30:19.472Z,99194.38
2023-03-26T03:32:46.170Z,99195.97
2023-03-26T03:35:12.707Z,99195.22
2023-03-26T03:37:39.187Z,99197.56
2023-03-26T03:40:07.751Z,99193.81
2023-03-26T03:42:34.257Z,99194.38
2023-03-26T03:45:01.965Z,99195.19
2023-03-26T03:47:28.561Z,99197.53
2023-03-26T03:49:56.909Z,99198.31
2023-03-26T03:52:23.485Z,99195.13
2023-03-26T03:55:02.669Z,99201.22
2023-03-26T03:57:32.034Z,99204.09
2023-03-26T03:59:59.014Z,99198.81
2023-03-26T04:02:34.970Z,99200.91
2023-03-26T04:05:03.440Z,99199.88
2023-03-26T04:07:32.164Z,99195.63
2023-03-26T04:10:05.942Z,99197.47
2023-03-26T04:12:32.589Z,99199.31
2023-03-26T04:14:59.346Z,99198.50
2023-03-26T04:17:26.907Z,99205.91
2023-03-26T04:19:54.920Z,99199.00
2023-03-26T04:22:22.069Z,99207.75
2023-03-26T04:24:49.749Z,99205.59
2023-03-26T04:27:27.275Z,99210.31
2023-03-26T04:29:54.022Z,99207.69
2023-03-26T04:32:29.793Z,99204.00
2023-03-26T04:35:00.315Z,99205.84
2023-03-26T04:37:34.337Z,99203.19
2023-03-26T04:40:03.496Z,99203.72
2023-03-26T04:42:30.275Z,99207.63
2023-03-26T04:44:59.730Z,99209.78
2023-03-26T04:47:26.302Z,99212.91
2023-03-26T04:49:52.874Z,99205.00
2023-03-26T04:52:19.401Z,99213.66
2023-03-26T04:54:46.163Z,99218.94
2023-03-26T04:57:21.625Z,99215.75
2023-03-26T04:59:48.247Z,99211.78
2023-03-26T05:02:15.598Z,99217.28
2023-03-26T05:04:43.920Z,99216.50
2023-03-26T05:07:13.696Z,99216.75
2023-03-26T05:09:40.412Z,99222.53
2023-03-26T05:12:06.981Z,99224.38
2023-03-26T05:14:33.605Z,99229.09
2023-03-26T05:17:00.936Z,99233.81
2023-03-26T05:19:27.492Z,99235.38
2023-03-26T05:21:53.999Z,99245.63
2023-03-26T05:24:20.742Z,99246.41
2023-03-26T05:26:47.254Z,99253.22
2023-03-26T05:29:17.201Z,99258.75
2023-03-26T05:31:44.362Z,99252.38
2023-03-26T05:34:11.165Z,99265.25
2023-03-26T05:36:37.930Z,99269.97
2023-03-26T05:39:04.920Z,99276.81
2023-03-26T05:41:31.461Z,99276.81
2023-03-26T05:43:57.980Z,99283.09
2023-03-26T05:46:24.665Z,99285.16
2023-03-26T05:48:52.121Z,99289.41
2023-03-26T05:51:18.688Z,99284.38
2023-03-26T05:53:45.526Z,99297.25
2023-03-26T05:56:12.469Z,99299.66
2023-03-26T05:58:39.181Z,99296.13
2023-03-26T06:01:08.976Z,99305.88
2023-03-26T06:03:38.401Z,99308.53
2023-03-26T06:06:10.202Z,99309.81
2023-03-26T06:08:36.727Z,99315.09
2023-03-26T06:11:08.156Z,99321.94
2023-03-26T06:13:34.874Z,99323.72
2023-03-26T06:16:01.414Z,99318.69
2023-03-26T06:18:28.048Z,99326.34
2023-03-26T06:20:54.844Z,99323.72
2023-03-26T06:23:22.885Z,99337.63
2023-03-26T06:25:49.698Z,99339.53
2023-03-26T06:28:16.328Z,99346.88
2023-03-26T06:30:43.178Z,99349.84
2023-03-26T06:33:09.753Z,99355.13
2023-03-26T06:35:36.549Z,99349.53
2023-03-26T06:38:03.170Z,99353.44
2023-03-26T06:40:30.013Z,99356.88
2023-03-26T06:43:09.332Z,99361.34
2023-03-26T06:45:38.049Z,99365.56
2023-03-26T06:48:04.981Z,99368.28
2023-03-26T06:50:32.305Z,99372.44
2023-03-26T06:52:58.906Z,99377.94
2023-03-26T06:55:26.249Z,99378.25
2023-03-26T06:57:54.350Z,99389.84
2023-03-26T07:00:21.465Z,99389.59
2023-03-26T07:02:48.171Z,99388.81
2023-03-26T07:05:15.617Z,99406.25
2023-03-26T07:07:46.339Z,99399.66
2023-03-26T07:10:14.042Z,99401.81
2023-03-26T07:12:42.370Z,99406.84
2023-03-26T07:15:10.341Z,99413.00
2023-03-26T07:17:37.753Z,99417.28
2023-03-26T07:20:06.476Z,99418.41
2023-03-26T07:22:33.185Z,99419.53
2023-03-26T07:24:59.983Z,99430.97
2023-03-26T07:27:37.142Z,99435.75
2023-03-26T07:30:16.822Z,99435.25
2023-03-26T07:33:04.958Z,99443.47
2023-03-26T07:35:48.923Z,99450.09
2023-03-26T07:38:42.640Z,99451.47
2023-03-26T07:41:27.507Z,99447.78
2023-03-26T07:44:23.357Z,99454.41
2023-03-26T07:46:53.305Z,99458.66
2023-03-26T07:49:20.454Z,99473.97
2023-03-26T07:51:48.956Z,99474.53
2023-03-26T07:54:15.947Z,99477.19
2023-03-26T07:56:58.726Z,99485.41
2023-03-26T07:59:35.396Z,99491.50
2023-03-26T08:02:32.437Z,99496.28
2023-03-26T08:05:20.612Z,99494.44
2023-03-26T08:07:53.255Z,99491.53
2023-03-26T08:10:30.387Z,99495.56
2023-03-26T08:13:14.193Z,99506.66
2023-03-26T08:15:53.585Z,99506.41
2023-03-26T08:18:35.659Z,99508.81
2023-03-26T08:21:06.350Z,99515.44
2023-03-26T08:23:57.735Z,99524.16
2023-03-26T08:26:24.227Z,99528.16
2023-03-26T08:29:04.083Z,99529.50
2023-03-26T08:31:36.594Z,99535.34
2023-03-26T08:34:03.205Z,99540.16
2023-03-26T08:36:29.868Z,99549.41
2023-03-26T08:38:57.624Z,99547.34
2023-03-26T08:41:42.332Z,99546.81
2023-03-26T08:44:27.746Z,99554.53
2023-03-26T08:47:28.242Z,99552.41
2023-03-26T08:50:19.003Z,99569.66
2023-03-26T08:53:23.408Z,99575.50
2023-03-26T08:55:57.318Z,99575.00
2023-03-26T08:58:57.476Z,99591.94
2023-03-26T09:01:49.200Z,99595.16
2023-03-26T09:04:18.693Z,99596.53
2023-03-26T09:07:19.118Z,99605.78
2023-03-26T09:09:48.548Z,99607.38
2023-03-26T09:12:33.889Z,99614.81
2023-03-26T09:15:38.000Z,99618.81
2023-03-26T09:18:22.905Z,99619.63
2023-03-26T09:21:22.320Z,99625.22
2023-03-26T09:24:27.653Z,99632.09
2023-03-26T09:27:13.540Z,99641.13
2023-03-26T09:29:46.311Z,99640.06
2023-03-26T09:32:18.667Z,99648.31
2023-03-26T09:35:29.246Z,99653.13
2023-03-26T09:37:59.983Z,99659.78
2023-03-26T09:40:38.725Z,99658.47
2023-03-26T09:43:42.390Z,99665.69
2023-03-26T09:46:15.114Z,99672.06
2023-03-26T09:48:53.961Z,99672.88
2023-03-26T09:51:45.954Z,99688.00
2023-03-26T09:54:37.357Z,99692.00
2023-03-26T09:57:23.808Z,99693.59
2023-03-26T10:00:26.134Z,99695.19
2023-03-26T10:03:11.292Z,99707.91
2023-03-26T10:05:53.129Z,99718.00
2023-03-26T10:08:32.205Z,99713.25
2023-03-26T10:11:23.873Z,99709.88
2023-03-26T10:14:21.556Z,99722.34
2023-03-26T10:17:10.678Z,99724.53
2023-03-26T10:19:37.789Z,99727.47
2023-03-26T10:22:22.918Z,99732.03
2023-03-26T10:25:17.466Z,99734.19
2023-03-26T10:28:09.322Z,99747.47
2023-03-26T10:31:15.254Z,99751.03
2023-03-26T10:34:00.255Z,99757.75
2023-03-26T10:36:38.648Z,99761.56
2023-03-26T10:39:36.000Z,99777.25
2023-03-26T10:42:17.502Z,99777.63
2023-03-26T10:45:21.378Z,99772.38
2023-03-26T10:48:12.735Z,99792.56
2023-03-26T10:50:51.402Z,99793.94
2023-03-26T10:53:31.503Z,99795.28
2023-03-26T10:56:07.447Z,99801.13
2023-03-26T10:58:49.240Z,99804.31
2023-03-26T11:01:29.610Z,99815.00
2023-03-26T11:04:01.507Z,99814.47
2023-03-26T11:06:31.053Z,99819.28
2023-03-26T11:09:31.135Z,99825.94
2023-03-26T11:12:25.442Z,99828.88
2023-03-26T11:14:57.421Z,99836.09
2023-03-26T11:17:40.288Z,99847.00
2023-03-26T11:20:20.456Z,99848.59
2023-03-26T11:23:00.719Z,99843.03
2023-03-26T11:25:51.879Z,99859.25
2023-03-26T11:28:33.814Z,99855.81
2023-03-26T11:31:21.631Z,99862.19
2023-03-26T11:33:52.736Z,99859.31
2023-03-26T11:36:26.272Z,99871.03
2023-03-26T11:38:58.118Z,99870.50
2023-03-26T11:41:28.260Z,99885.41
2023-03-26T11:44:00.338Z,99878.31
2023-03-26T11:46:27.284Z,99879.97
2023-03-26T11:48:59.451Z,99889.03
2023-03-26T11:51:37.408Z,99889.63
2023-03-26T11:54:05.823Z,99903.19
2023-03-26T11:56:37.662Z,99912.25
2023-03-26T11:59:21.204Z,99910.38
2023-03-26T12:01:56.759Z,99918.06
2023-03-26T12:04:38.212Z,99927.63
2023-03-26T12:07:26.203Z,99925.22
2023-03-26T12:09:56.384Z,99938.47
2023-03-26T12:12:27.679Z,99936.63
2023-03-26T12:14:54.782Z,99939.84
2023-03-26T12:17:34.114Z,99948.34
2023-03-26T12:20:02.078Z,99952.16
2023-03-26T12:22:43.474Z,99952.50
2023-03-26T12:25:21.234Z,99947.84
2023-03-26T12:28:13.164Z,99957.25
2023-03-26T12:31:00.871Z,99949.41
2023-03-26T12:33:35.379Z,99950.84
2023-03-26T12:36:26.687Z,99959.72
2023-03-26T12:39:16.775Z,99961.94
2023-03-26T12:44:43.318Z,99973.22
2023-03-26T12:44:56.464Z,99978.34
2023-03-26T12:47:58.515Z,99985.00
2023-03-26T12:50:15.325Z,100001.22
2023-03-26T12:52:52.374Z,100005.22
2023-03-26T12:55:21.993Z,100018.50
2023-03-26T12:58:00.781Z,100025.94
2023-03-26T13:01:03.054Z,100031.22
2023-03-26T13:04:28.754Z,100032.78
2023-03-26T13:07:04.470Z,100041.53
2023-03-26T13:09:34.069Z,100047.09
2023-03-26T13:12:20.559Z,100052.34
2023-03-26T13:15:22.567Z,100053.38
2023-03-26T13:18:16.052Z,100062.91
2023-03-26T13:20:58.097Z,100071.63
2023-03-26T13:23:42.665Z,100080.09
2023-03-26T13:26:27.628Z,100072.06
2023-03-26T13:29:04.695Z,100085.03
2023-03-26T13:31:41.881Z,100091.38
2023-03-26T13:34:38.108Z,100086.59
2023-03-26T13:38:00.448Z,100100.91
2023-03-26T13:40:42.083Z,100094.50
2023-03-26T13:43:26.914Z,100094.25
2023-03-26T13:46:02.249Z,100108.56
2023-03-26T13:48:36.369Z,100106.44
2023-03-26T13:51:39.904Z,100106.44
2023-03-26T13:54:24.877Z,100117.03
2023-03-26T13:57:07.899Z,100119.69
2023-03-26T13:59:40.651Z,100116.78
2023-03-26T14:02:18.023Z,100122.88
2023-03-26T14:04:49.597Z,100122.41
2023-03-26T14:07:41.301Z,100127.44
2023-03-26T14:10:19.831Z,100126.41
2023-03-26T14:13:10.022Z,100130.66
2023-03-26T14:15:41.374Z,100142.38
2023-03-26T14:18:26.488Z,100134.41
2023-03-26T14:21:21.849Z,100151.44
2023-03-26T14:23:51.115Z,100150.47
2023-03-26T14:26:39.256Z,100160.31
2023-03-26T14:29:31.061Z,100161.25
2023-03-26T14:32:09.903Z,100168.75
2023-03-26T14:35:04.877Z,100169.91
2023-03-26T14:37:53.744Z,100182.22
2023-03-26T14:40:30.999Z,100186.47
2023-03-26T14:43:09.813Z,100187.50
2023-03-26T14:46:17.114Z,100191.78
2023-03-26T14:49:02.052Z,100190.44
2023-03-26T14:51:47.247Z,100195.97
2023-03-26T14:54:17.480Z,100195.66
2023-03-26T14:56:50.060Z,100208.63
2023-03-26T15:00:00.562Z,100209.88
2023-03-26T15:03:04.792Z,100222.53
2023-03-26T15:06:02.323Z,100234.69
2023-03-26T15:08:58.444Z,100237.25
2023-03-26T15:11:41.035Z,100239.84
2023-03-26T15:14:43.745Z,100244.31
2023-03-26T15:17:19.059Z,100261.50
2023-03-26T15:19:55.837Z,100265.44
2023-03-26T15:22:59.206Z,100268.03
2023-03-26T15:25:37.869Z,100282.25
2023-03-26T15:28:19.559Z,100289.81
2023-03-26T15:31:21.049Z,100307.50
2023-03-26T15:34:18.466Z,100311.03
2023-03-26T15:37:27.521Z,100319.31
2023-03-26T15:40:09.334Z,100332.97
2023-03-26T15:42:45.759Z,100333.09
2023-03-26T15:45:22.536Z,100338.38
2023-03-26T15:48:10.935Z,100340.28
2023-03-26T15:50:48.083Z,100342.94
2023-03-26T15:53:23.592Z,100340.16
2023-03-26T15:56:22.215Z,100342.47
2023-03-26T15:59:06.181Z,100346.94
2023-03-26T16:02:04.067Z,100349.50
2023-03-26T16:04:50.704Z,100347.31
2023-03-26T16:07:21.850Z,100344.66
2023-03-26T16:09:56.938Z,100356.41
2023-03-26T16:12:30.772Z,100357.78
2023-03-26T16:15:07.303Z,100355.03
2023-03-26T16:18:05.215Z,100370.22
2023-03-26T16:20:50.888Z,100379.19
2023-03-26T16:23:53.759Z,100386.81
2023-03-26T16:26:42.691Z,100392.91
2023-03-26T16:29:24.020Z,100397.41
2023-03-26T16:32:16.722Z,100393.94
2023-03-26T16:34:59.455Z,100400.28
2023-03-26T16:37:40.938Z,100403.72
2023-03-26T16:40:16.739Z,100410.31
2023-03-26T16:42:55.464Z,100412.38
2023-03-26T16:45:49.434Z,100417.00
2023-03-26T16:48:46.087Z,100427.25
2023-03-26T16:51:17.195Z,100433.38
2023-03-26T16:54:24.349Z,100445.47
2023-03-26T16:57:32.268Z,100442.22
2023-03-26T17:00:05.370Z,100458.22
2023-03-26T17:02:47.988Z,100460.66
2023-03-26T17:05:43.899Z,100460.53
2023-03-26T17:08:47.628Z,100465.50
2023-03-26T17:11:48.239Z,100472.84
2023-03-26T17:14:35.237Z,100483.09
2023-03-26T17:17:23.895Z,100489.97
2023-03-26T17:20:09.335Z,100500.69
2023-03-26T17:23:02.599Z,100506.41
2023-03-26T17:25:34.813Z,100515.03
2023-03-26T17:28:23.084Z,100518.59
2023-03-26T17:31:10.953Z,100518.47
2023-03-26T17:33:39.212Z,100523.41
2023-03-26T17:36:12.404Z,100533.72
2023-03-26T17:38:39.018Z,100528.41
2023-03-26T17:41:07.054Z,100544.56
2023-03-26T17:43:51.151Z,100553.03
2023-03-26T17:46:25.375Z,100563.25
2023-03-26T17:49:03.795Z,100565.16
2023-03-26T17:51:41.684Z,100565.84
2023-03-26T17:54:19.118Z,100577.44
2023-03-26T17:56:47.693Z,100568.34
2023-03-26T17:59:23.879Z,100586.22
2023-03-26T18:01:57.577Z,100590.56
2023-03-26T18:04:33.858Z,100588.75
2023-03-26T18:07:23.057Z,100602.00
2023-03-26T18:10:12.965Z,100610.16
2023-03-26T18:13:04.485Z,100613.84
2023-03-26T18:15:33.775Z,100621.41
2023-03-26T18:18:26.394Z,100630.56
2023-03-26T18:20:54.588Z,100632.25
2023-03-26T18:23:26.210Z,100635.31
2023-03-26T18:25:58.066Z,100632.91
2023-03-26T18:28:34.720Z,100640.88
2023-03-26T18:31:19.825Z,100635.38
2023-03-26T18:33:49.361Z,100639.25
2023-03-26T18:36:18.616Z,100641.09
2023-03-26T18:38:45.814Z,100638.50
2023-03-26T18:41:31.185Z,100632.59
2023-03-26T18:44:02.957Z,100634.28
2023-03-26T18:46:29.944Z,100634.28
2023-03-26T18:48:57.006Z,100644.47
2023-03-26T18:51:26.560Z,100650.59
2023-03-26T18:54:03.343Z,100655.53
2023-03-26T18:56:39.696Z,100660.44
2023-03-26T18:59:19.936Z,100661.66
2023-03-26T19:01:48.678Z,100670.22
2023-03-26T19:04:16.131Z,100683.63
2023-03-26T19:06:43.914Z,100698.88
2023-03-26T19:09:28.112Z,100709.84
2023-03-26T19:12:04.875Z,100711.69
2023-03-26T19:14:36.661Z,100722.66
2023-03-26T19:17:07.019Z,100712.16
2023-03-26T19:19:37.033Z,100715.38
2023-03-26T19:22:09.372Z,100731.19
2023-03-26T19:24:36.267Z,100728.56
2023-03-26T19:27:04.194Z,100735.28
2023-03-26T19:29:36.220Z,100730.22
2023-03-26T19:32:15.375Z,100735.94
2023-03-26T19:34:45.637Z,100737.75
2023-03-26T19:37:25.135Z,100743.22
2023-03-26T19:39:54.126Z,100737.78
2023-03-26T19:42:42.965Z,100750.38
2023-03-26T19:45:18.057Z,100751.00
2023-03-26T19:47:52.109Z,100747.34
2023-03-26T19:50:29.660Z,100751.63
2023-03-26T19:53:17.645Z,100754.25
2023-03-26T19:55:58.909Z,100756.91
2023-03-26T19:58:28.727Z,100767.06
2023-03-26T20:00:58.756Z,100769.13
2023-03-26T20:03:36.909Z,100774.56
2023-03-26T20:06:03.793Z,100786.16
2023-03-26T20:08:30.312Z,100789.81
2023-03-26T20:10:58.110Z,100796.13
2023-03-26T20:13:25.464Z,100788.59
2023-03-26T20:16:08.635Z,100798.53
2023-03-26T20:18:35.320Z,100803.22
2023-03-26T20:21:02.178Z,100810.53
2023-03-26T20:23:29.399Z,100815.00
2023-03-26T20:25:56.454Z,100817.63
2023-03-26T20:28:24.577Z,100821.28
2023-03-26T20:30:54.353Z,100822.31
2023-03-26T20:33:25.541Z,100821.09
2023-03-26T20:35:57.480Z,100830.00
2023-03-26T20:38:37.038Z,100827.00
2023-03-26T20:41:09.779Z,100832.28
2023-03-26T20:43:36.567Z,100836.91
2023-03-26T20:46:04.030Z,100846.03
2023-03-26T20:48:30.539Z,100846.25
2023-03-26T20:50:57.140Z,100843.00
2023-03-26T20:53:24.149Z,100845.06
2023-03-26T20:55:51.626Z,100853.19
2023-03-26T20:58:31.658Z,100851.13
2023-03-26T21:01:01.280Z,100849.50
2023-03-26T21:03:28.243Z,100856.63
2023-03-26T21:05:58.982Z,100858.03
2023-03-26T21:08:30.209Z,100855.41
2023-03-26T21:10:58.742Z,100862.69
2023-03-26T21:13:46.586Z,100864.09
2023-03-26T21:16:14.774Z,100864.53
2023-03-26T21:18:42.106Z,100865.13
2023-03-26T21:21:36.153Z,100876.06
2023-03-26T21:24:39.139Z,100877.47
2023-03-26T21:27:11.264Z,100894.53
2023-03-26T21:29:38.107Z,100897.16
2023-03-26T21:32:05.815Z,100902.63
2023-03-26T21:34:33.590Z,100902.84
2023-03-26T21:37:01.524Z,100913.59
2023-03-26T21:39:29.030Z,100912.94
2023-03-26T21:42:05.103Z,100908.72
2023-03-26T21:44:33.063Z,100914.38
2023-03-26T21:47:00.300Z,100919.84
2023-03-26T21:49:27.292Z,100926.94
2023-03-26T21:51:54.192Z,100923.69
2023-03-26T21:54:25.563Z,100919.44
2023-03-26T21:56:57.981Z,100929.16
2023-03-26T21:59:27.544Z,100927.72
2023-03-26T22:02:05.955Z,100937.47
2023-03-26T22:04:39.232Z,100930.56
2023-03-26T22:07:11.674Z,100932.38
2023-03-26T22:09:38.494Z,100938.25
2023-03-26T22:12:07.287Z,100945.34
2023-03-26T22:14:34.473Z,100932.56
2023-03-26T22:17:01.131Z,100944.13
2023-03-26T22:19:29.136Z,100954.84
2023-03-26T22:21:58.113Z,100952.41
2023-03-26T22:24:24.611Z,100955.25
2023-03-26T22:26:51.146Z,100958.09
2023-03-26T22:29:17.980Z,100965.34
2023-03-26T22:31:45.123Z,100967.19
2023-03-26T22:34:11.757Z,100977.94
2023-03-26T22:36:40.398Z,100971.00
2023-03-26T22:39:07.249Z,100969.78
2023-03-26T22:41:33.776Z,100982.94
2023-03-26T22:44:09.251Z,100987.63
2023-03-26T22:46:47.389Z,100989.63
2023-03-26T22:49:13.945Z,100982.75
2023-03-26T22:51:40.476Z,100992.63
2023-03-26T22:54:07.658Z,100996.28
2023-03-26T22:56:34.210Z,101000.16
2023-03-26T22:59:00.742Z,101001.94
2023-03-26T23:01:27.375Z,101004.19
2023-03-26T23:03:54.569Z,101006.97
2023-03-26T23:06:21.688Z,101003.13
2023-03-26T23:08:48.851Z,101013.84
2023-03-26T23:11:18.001Z,101016.06
2023-03-26T23:13:46.616Z,101018.06
2023-03-26T23:16:14.349Z,101023.16
2023-03-26T23:18:41.644Z,101019.44
2023-03-26T23:21:18.449Z,101020.47
2023-03-26T23:23:45.719Z,101025.50
2023-03-26T23:26:12.519Z,101033.59
2023-03-26T23:28:39.284Z,101028.09
2023-03-26T23:31:08.085Z,101046.72
2023-03-26T23:33:37.320Z,101051.69
2023-03-26T23:36:09.304Z,101067.69
2023-03-26T23:38:43.245Z,101056.91
2023-03-26T23:41:15.262Z,101058.91
2023-03-26T23:43:53.998Z,101072.88
2023-03-26T23:46:30.363Z,101066.38
2023-03-26T23:49:00.030Z,101063.50
2023-03-26T23:51:26.818Z,101072.59
2023-03-26T23:53:53.902Z,101068.91
2023-03-26T23:56:21.229Z,101074.75
2023-03-26T23:58:48.924Z,101076.72
